sensor_id;sensor_type;location;lat;lon;timestamp;P1;P4;P2;P0;N10;N4;N25;N1;N05;TS
78642;SPS30;67954;47.618;17.606;2023-07-31T00:00:17;0.00;0.00;0.00;0.00;;;;74.00;2.00;
78642;SPS30;67954;47.618;17.606;2023-07-31T00:00:48;0.00;0.00;0.00;0.00;;;;77.67;2.00;
78642;SPS30;67954;47.618;17.606;2023-07-31T00:01:19;0.00;0.00;0.00;0.00;;;;82.33;2.00;
78642;SPS30;67954;47.618;17.606;2023-07-31T00:01:50;0.00;0.00;0.00;0.00;;;;87.00;2.00;
78642;SPS30;67954;47.618;17.606;2023-07-31T00:02:21;0.00;0.00;0.00;0.00;;;;90.33;2.00;
78642;SPS30;67954;47.618;17.606;2023-07-31T00:02:53;0.00;0.00;0.00;0.00;;;;97.00;2.00;
78642;SPS30;67954;47.618;17.606;2023-07-31T00:03:24;0.00;0.00;0.00;0.00;;;;102.67;2.00;
78642;SPS30;67954;47.618;17.606;2023-07-31T00:03:55;0.00;0.00;0.00;0.00;;;;105.67;2.00;
78642;SPS30;67954;47.618;17.606;2023-07-31T00:04:26;0.00;0.00;0.00;0.00;;;;107.67;2.00;
78642;SPS30;67954;47.618;17.606;2023-07-31T00:04:58;0.00;0.00;0.00;0.00;;;;110.67;2.00;
78642;SPS30;67954;47.618;17.606;2023-07-31T00:05:29;0.00;0.00;0.00;0.00;;;;107.67;2.00;
78642;SPS30;67954;47.618;17.606;2023-07-31T00:05:59;0.00;0.00;0.00;0.00;;;;110.00;2.00;
78642;SPS30;67954;47.618;17.606;2023-07-31T00:06:30;0.00;0.00;0.00;0.00;;;;112.00;2.00;
78642;SPS30;67954;47.618;17.606;2023-07-31T00:07:04;0.00;0.00;0.00;0.00;;;;108.67;2.00;
78642;SPS30;67954;47.618;17.606;2023-07-31T00:07:36;0.00;0.00;0.00;0.00;;;;108.33;2.00;
78642;SPS30;67954;47.618;17.606;2023-07-31T00:08:07;0.00;0.00;0.00;0.00;;;;111.00;2.00;
78642;SPS30;67954;47.618;17.606;2023-07-31T00:08:38;0.00;0.00;0.00;0.00;;;;110.67;2.00;
78642;SPS30;67954;47.618;17.606;2023-07-31T00:09:09;0.00;0.00;0.00;0.00;;;;113.00;2.00;
78642;SPS30;67954;47.618;17.606;2023-07-31T00:09:40;0.00;0.00;0.00;0.00;;;;116.00;2.00;
78642;SPS30;67954;47.618;17.606;2023-07-31T00:10:11;0.00;0.00;0.00;0.00;;;;113.33;2.00;
78642;SPS30;67954;47.618;17.606;2023-07-31T00:10:42;0.00;0.00;0.00;0.00;;;;110.67;2.00;
78642;SPS30;67954;47.618;17.606;2023-07-31T00:11:14;0.00;0.00;0.00;0.00;;;;110.00;2.00;
78642;SPS30;67954;47.618;17.606;2023-07-31T00:11:45;0.00;0.00;0.00;0.00;;;;110.33;1.33;
78642;SPS30;67954;47.618;17.606;2023-07-31T00:12:15;0.00;0.00;0.00;0.00;;;;111.67;1.00;
78642;SPS30;67954;47.618;17.606;2023-07-31T00:12:46;0.00;0.00;0.00;0.00;;;;111.00;1.00;
78642;SPS30;67954;47.618;17.606;2023-07-31T00:13:18;0.00;0.00;0.00;0.00;;;;109.67;1.00;
78642;SPS30;67954;47.618;17.606;2023-07-31T00:13:49;0.00;0.00;0.00;0.00;;;;109.00;1.00;
78642;SPS30;67954;47.618;17.606;2023-07-31T00:14:20;0.00;0.00;0.00;0.00;;;;109.00;1.00;
78642;SPS30;67954;47.618;17.606;2023-07-31T00:14:50;0.00;0.00;0.00;0.00;;;;108.67;1.00;
78642;SPS30;67954;47.618;17.606;2023-07-31T00:15:22;0.00;0.00;0.00;0.00;;;;108.00;1.00;
78642;SPS30;67954;47.618;17.606;2023-07-31T00:15:53;0.00;0.00;0.00;0.00;;;;108.67;1.00;
78642;SPS30;67954;47.618;17.606;2023-07-31T00:16:24;0.00;0.00;0.00;0.00;;;;110.67;1.00;
78642;SPS30;67954;47.618;17.606;2023-07-31T00:16:55;0.00;0.00;0.00;0.00;;;;112.33;1.00;
78642;SPS30;67954;47.618;17.606;2023-07-31T00:17:26;0.00;0.00;0.00;0.00;;;;116.67;1.00;
78642;SPS30;67954;47.618;17.606;2023-07-31T00:17:57;0.00;0.00;0.00;0.00;;;;126.33;1.00;
78642;SPS30;67954;47.618;17.606;2023-07-31T00:18:28;0.00;0.00;0.00;0.00;;;;135.67;1.00;
78642;SPS30;67954;47.618;17.606;2023-07-31T00:18:59;0.00;0.00;0.00;0.00;;;;135.33;1.00;
78642;SPS30;67954;47.618;17.606;2023-07-31T00:19:30;0.00;0.00;0.00;0.00;;;;137.67;1.00;
78642;SPS30;67954;47.618;17.606;2023-07-31T00:20:01;0.00;0.00;0.00;0.00;;;;137.33;1.00;
78642;SPS30;67954;47.618;17.606;2023-07-31T00:20:32;0.00;0.00;0.00;0.00;;;;135.67;1.00;
78642;SPS30;67954;47.618;17.606;2023-07-31T00:21:03;0.00;0.00;0.00;0.00;;;;136.00;1.00;
78642;SPS30;67954;47.618;17.606;2023-07-31T00:21:34;0.00;0.00;0.00;0.00;;;;135.33;1.00;
78642;SPS30;67954;47.618;17.606;2023-07-31T00:22:07;0.00;0.00;0.00;0.00;;;;136.00;1.00;
78642;SPS30;67954;47.618;17.606;2023-07-31T00:22:38;0.00;0.00;0.00;0.00;;;;136.67;1.00;
78642;SPS30;67954;47.618;17.606;2023-07-31T00:23:09;0.00;0.00;0.00;0.00;;;;136.33;1.00;
78642;SPS30;67954;47.618;17.606;2023-07-31T00:23:40;0.00;0.00;0.00;0.00;;;;134.00;1.00;
78642;SPS30;67954;47.618;17.606;2023-07-31T00:24:11;0.00;0.00;0.00;0.00;;;;132.00;1.00;
78642;SPS30;67954;47.618;17.606;2023-07-31T00:24:42;0.00;0.00;0.00;0.00;;;;131.00;1.00;
78642;SPS30;67954;47.618;17.606;2023-07-31T00:25:13;0.00;0.00;0.00;0.00;;;;131.00;1.00;
78642;SPS30;67954;47.618;17.606;2023-07-31T00:25:44;0.00;0.00;0.00;0.00;;;;133.00;1.00;
78642;SPS30;67954;47.618;17.606;2023-07-31T00:26:16;0.00;0.00;0.00;0.00;;;;134.00;1.00;
78642;SPS30;67954;47.618;17.606;2023-07-31T00:26:46;0.00;0.00;0.00;0.00;;;;133.33;1.00;
78642;SPS30;67954;47.618;17.606;2023-07-31T00:27:17;0.00;0.00;0.00;0.00;;;;133.33;1.00;
78642;SPS30;67954;47.618;17.606;2023-07-31T00:27:48;0.00;0.00;0.00;0.00;;;;133.00;1.00;
78642;SPS30;67954;47.618;17.606;2023-07-31T00:28:19;0.00;0.00;0.00;0.00;;;;132.00;1.00;
78642;SPS30;67954;47.618;17.606;2023-07-31T00:28:50;0.00;0.00;0.00;0.00;;;;132.00;1.00;
78642;SPS30;67954;47.618;17.606;2023-07-31T00:29:21;0.00;0.00;0.00;0.00;;;;131.67;1.00;
78642;SPS30;67954;47.618;17.606;2023-07-31T00:29:52;0.00;0.00;0.00;0.00;;;;131.67;1.00;
78642;SPS30;67954;47.618;17.606;2023-07-31T00:30:23;0.00;0.00;0.00;0.00;;;;131.33;1.00;
78642;SPS30;67954;47.618;17.606;2023-07-31T00:30:55;0.00;0.00;0.00;0.00;;;;130.67;1.00;
78642;SPS30;67954;47.618;17.606;2023-07-31T00:31:26;0.00;0.00;0.00;0.00;;;;129.33;1.00;
78642;SPS30;67954;47.618;17.606;2023-07-31T00:31:57;0.00;0.00;0.00;0.00;;;;129.00;1.00;
78642;SPS30;67954;47.618;17.606;2023-07-31T00:32:29;0.00;0.00;0.00;0.00;;;;129.33;1.00;
78642;SPS30;67954;47.618;17.606;2023-07-31T00:33:00;0.00;0.00;0.00;0.00;;;;130.00;1.00;
78642;SPS30;67954;47.618;17.606;2023-07-31T00:33:31;0.00;0.00;0.00;0.00;;;;130.67;1.00;
78642;SPS30;67954;47.618;17.606;2023-07-31T00:34:02;0.00;0.00;0.00;0.00;;;;132.67;1.00;
78642;SPS30;67954;47.618;17.606;2023-07-31T00:34:33;0.00;0.00;0.00;0.00;;;;133.33;1.00;
78642;SPS30;67954;47.618;17.606;2023-07-31T00:35:04;0.00;0.00;0.00;0.00;;;;136.00;1.00;
78642;SPS30;67954;47.618;17.606;2023-07-31T00:35:36;0.00;0.00;0.00;0.00;;;;137.00;1.00;
78642;SPS30;67954;47.618;17.606;2023-07-31T00:36:06;0.00;0.00;0.00;0.00;;;;137.67;1.00;
78642;SPS30;67954;47.618;17.606;2023-07-31T00:36:38;0.00;0.00;0.00;0.00;;;;139.33;1.00;
78642;SPS30;67954;47.618;17.606;2023-07-31T00:37:10;0.00;0.00;0.00;0.00;;;;140.00;1.00;
78642;SPS30;67954;47.618;17.606;2023-07-31T00:37:41;0.00;0.00;0.00;0.00;;;;139.67;1.00;
78642;SPS30;67954;47.618;17.606;2023-07-31T00:38:12;0.00;0.00;0.00;0.00;;;;138.67;1.00;
78642;SPS30;67954;47.618;17.606;2023-07-31T00:38:44;0.00;0.00;0.00;0.00;;;;138.00;1.00;
78642;SPS30;67954;47.618;17.606;2023-07-31T00:39:14;0.00;0.00;0.00;0.00;;;;138.00;1.00;
78642;SPS30;67954;47.618;17.606;2023-07-31T00:39:45;0.00;0.00;0.00;0.00;;;;137.33;1.00;
78642;SPS30;67954;47.618;17.606;2023-07-31T00:40:16;0.00;0.00;0.00;0.00;;;;137.00;1.00;
78642;SPS30;67954;47.618;17.606;2023-07-31T00:40:48;0.00;0.00;0.00;0.00;;;;136.33;1.00;
78642;SPS30;67954;47.618;17.606;2023-07-31T00:41:18;0.00;0.00;0.00;0.00;;;;132.00;1.00;
78642;SPS30;67954;47.618;17.606;2023-07-31T00:41:49;0.00;0.00;0.00;0.00;;;;129.33;1.00;
78642;SPS30;67954;47.618;17.606;2023-07-31T00:42:21;0.00;0.00;0.00;0.00;;;;130.00;1.00;
78642;SPS30;67954;47.618;17.606;2023-07-31T00:42:52;0.00;0.00;0.00;0.00;;;;129.00;1.00;
78642;SPS30;67954;47.618;17.606;2023-07-31T00:43:23;0.00;0.00;0.00;0.00;;;;121.67;1.00;
78642;SPS30;67954;47.618;17.606;2023-07-31T00:43:54;0.00;0.00;0.00;0.00;;;;116.67;1.00;
78642;SPS30;67954;47.618;17.606;2023-07-31T00:44:25;0.00;0.00;0.00;0.00;;;;115.67;1.00;
78642;SPS30;67954;47.618;17.606;2023-07-31T00:44:57;0.00;0.00;0.00;0.00;;;;114.33;1.00;
78642;SPS30;67954;47.618;17.606;2023-07-31T00:45:28;0.00;0.00;0.00;0.00;;;;104.00;1.00;
78642;SPS30;67954;47.618;17.606;2023-07-31T00:45:59;0.00;0.00;0.00;0.00;;;;98.67;1.00;
78642;SPS30;67954;47.618;17.606;2023-07-31T00:46:31;0.00;0.00;0.00;0.00;;;;105.00;1.00;
78642;SPS30;67954;47.618;17.606;2023-07-31T00:47:01;0.00;0.00;0.00;0.00;;;;109.00;1.00;
78642;SPS30;67954;47.618;17.606;2023-07-31T00:47:32;0.00;0.00;0.00;0.00;;;;110.00;1.00;
78642;SPS30;67954;47.618;17.606;2023-07-31T00:48:04;0.00;0.00;0.00;0.00;;;;110.67;1.00;
78642;SPS30;67954;47.618;17.606;2023-07-31T00:48:37;0.00;0.00;0.00;0.00;;;;111.67;1.00;
78642;SPS30;67954;47.618;17.606;2023-07-31T00:49:10;0.00;0.00;0.00;0.00;;;;112.67;1.00;
78642;SPS30;67954;47.618;17.606;2023-07-31T00:49:42;0.00;0.00;0.00;0.00;;;;114.33;1.00;
78642;SPS30;67954;47.618;17.606;2023-07-31T00:50:14;0.00;0.00;0.00;0.00;;;;115.00;1.00;
78642;SPS30;67954;47.618;17.606;2023-07-31T00:50:45;0.00;0.00;0.00;0.00;;;;116.00;1.00;
78642;SPS30;67954;47.618;17.606;2023-07-31T00:51:16;0.00;0.00;0.00;0.00;;;;116.33;1.00;
78642;SPS30;67954;47.618;17.606;2023-07-31T00:51:47;0.00;0.00;0.00;0.00;;;;117.00;1.00;
78642;SPS30;67954;47.618;17.606;2023-07-31T00:52:20;0.00;0.00;0.00;0.00;;;;117.00;1.00;
78642;SPS30;67954;47.618;17.606;2023-07-31T00:52:51;0.00;0.00;0.00;0.00;;;;117.67;1.00;
78642;SPS30;67954;47.618;17.606;2023-07-31T00:53:22;0.00;0.00;0.00;0.00;;;;118.00;1.00;
78642;SPS30;67954;47.618;17.606;2023-07-31T00:53:55;0.00;0.00;0.00;0.00;;;;118.67;1.00;
78642;SPS30;67954;47.618;17.606;2023-07-31T00:54:27;0.00;0.00;0.00;0.00;;;;120.33;1.00;
78642;SPS30;67954;47.618;17.606;2023-07-31T00:54:57;0.00;0.00;0.00;0.00;;;;121.00;1.00;
78642;SPS30;67954;47.618;17.606;2023-07-31T00:55:29;0.00;0.00;0.00;0.00;;;;121.00;1.00;
78642;SPS30;67954;47.618;17.606;2023-07-31T00:56:00;0.00;0.00;0.00;0.00;;;;121.67;1.00;
78642;SPS30;67954;47.618;17.606;2023-07-31T00:56:32;0.00;0.00;0.00;0.00;;;;122.33;1.00;
78642;SPS30;67954;47.618;17.606;2023-07-31T00:57:04;0.00;0.00;0.00;0.00;;;;124.00;1.00;
78642;SPS30;67954;47.618;17.606;2023-07-31T00:57:35;0.00;0.00;0.00;0.00;;;;124.00;1.00;
78642;SPS30;67954;47.618;17.606;2023-07-31T00:58:08;0.00;0.00;0.00;0.00;;;;124.00;1.00;
78642;SPS30;67954;47.618;17.606;2023-07-31T00:58:40;0.00;0.00;0.00;0.00;;;;124.00;1.00;
78642;SPS30;67954;47.618;17.606;2023-07-31T00:59:11;0.00;0.00;0.00;0.00;;;;124.00;1.00;
78642;SPS30;67954;47.618;17.606;2023-07-31T00:59:42;0.00;0.00;0.00;0.00;;;;125.67;1.00;
78642;SPS30;67954;47.618;17.606;2023-07-31T01:00:12;0.00;0.00;0.00;0.00;;;;129.67;1.00;
78642;SPS30;67954;47.618;17.606;2023-07-31T01:00:44;0.00;0.00;0.00;0.00;;;;131.00;1.00;
78642;SPS30;67954;47.618;17.606;2023-07-31T01:01:15;0.00;0.00;0.00;0.00;;;;131.00;1.00;
78642;SPS30;67954;47.618;17.606;2023-07-31T01:01:46;0.00;0.00;0.00;0.00;;;;131.00;1.00;
78642;SPS30;67954;47.618;17.606;2023-07-31T01:02:17;0.00;0.00;0.00;0.00;;;;131.00;1.00;
78642;SPS30;67954;47.618;17.606;2023-07-31T01:02:49;0.00;0.00;0.00;0.00;;;;130.00;1.00;
78642;SPS30;67954;47.618;17.606;2023-07-31T01:03:21;0.00;0.00;0.00;0.00;;;;129.33;1.00;
78642;SPS30;67954;47.618;17.606;2023-07-31T01:03:52;0.00;0.00;0.00;0.00;;;;129.00;1.00;
78642;SPS30;67954;47.618;17.606;2023-07-31T01:04:24;0.00;0.00;0.00;0.00;;;;129.00;1.00;
78642;SPS30;67954;47.618;17.606;2023-07-31T01:04:55;0.00;0.00;0.00;0.00;;;;129.00;1.00;
78642;SPS30;67954;47.618;17.606;2023-07-31T01:05:29;0.00;0.00;0.00;0.00;;;;127.67;1.00;
78642;SPS30;67954;47.618;17.606;2023-07-31T01:06:22;0.00;0.00;0.00;0.00;;;;84.33;1.00;
78642;SPS30;67954;47.618;17.606;2023-07-31T01:07:06;0.00;0.00;0.00;0.00;;;;77.67;1.00;
78642;SPS30;67954;47.618;17.606;2023-07-31T01:07:49;0.00;0.00;0.00;0.00;;;;88.00;1.00;
78642;SPS30;67954;47.618;17.606;2023-07-31T01:08:29;0.00;0.00;0.00;0.00;;;;99.00;1.00;
78642;SPS30;67954;47.618;17.606;2023-07-31T01:09:10;0.00;0.00;0.00;0.00;;;;102.00;1.00;
78642;SPS30;67954;47.618;17.606;2023-07-31T01:09:47;0.00;0.00;0.00;0.00;;;;107.33;1.00;
78642;SPS30;67954;47.618;17.606;2023-07-31T01:10:29;0.00;0.00;0.00;0.00;;;;109.33;1.00;
78642;SPS30;67954;47.618;17.606;2023-07-31T01:11:07;0.00;0.00;0.00;0.00;;;;108.00;1.00;
78642;SPS30;67954;47.618;17.606;2023-07-31T01:11:46;0.00;0.00;0.00;0.00;;;;108.00;1.00;
78642;SPS30;67954;47.618;17.606;2023-07-31T01:12:22;0.00;0.00;0.00;0.00;;;;104.67;1.00;
78642;SPS30;67954;47.618;17.606;2023-07-31T01:12:57;0.00;0.00;0.00;0.00;;;;93.33;1.00;
78642;SPS30;67954;47.618;17.606;2023-07-31T01:13:28;0.00;0.00;0.00;0.00;;;;90.67;1.00;
78642;SPS30;67954;47.618;17.606;2023-07-31T01:13:59;0.00;0.00;0.00;0.00;;;;87.67;1.00;
78642;SPS30;67954;47.618;17.606;2023-07-31T01:14:31;0.00;0.00;0.00;0.00;;;;91.33;1.00;
78642;SPS30;67954;47.618;17.606;2023-07-31T01:15:03;0.00;0.00;0.00;0.00;;;;94.00;1.00;
78642;SPS30;67954;47.618;17.606;2023-07-31T01:15:35;0.00;0.00;0.00;0.00;;;;95.67;1.00;
78642;SPS30;67954;47.618;17.606;2023-07-31T01:16:06;0.00;0.00;0.00;0.00;;;;97.00;1.00;
78642;SPS30;67954;47.618;17.606;2023-07-31T01:16:37;0.00;0.00;0.00;0.00;;;;98.67;1.00;
78642;SPS30;67954;47.618;17.606;2023-07-31T01:17:09;0.00;0.00;0.00;0.00;;;;100.67;1.00;
78642;SPS30;67954;47.618;17.606;2023-07-31T01:17:40;0.00;0.00;0.00;0.00;;;;104.00;1.00;
78642;SPS30;67954;47.618;17.606;2023-07-31T01:18:11;0.00;0.00;0.00;0.00;;;;107.00;1.00;
78642;SPS30;67954;47.618;17.606;2023-07-31T01:18:43;0.00;0.00;0.00;0.00;;;;109.67;1.00;
78642;SPS30;67954;47.618;17.606;2023-07-31T01:19:14;0.00;0.00;0.00;0.00;;;;111.00;1.00;
78642;SPS30;67954;47.618;17.606;2023-07-31T01:19:51;0.00;0.00;0.00;0.00;;;;114.00;1.00;
78642;SPS30;67954;47.618;17.606;2023-07-31T01:20:24;0.00;0.00;0.00;0.00;;;;118.00;1.00;
78642;SPS30;67954;47.618;17.606;2023-07-31T01:21:00;0.00;0.00;0.00;0.00;;;;120.00;1.00;
78642;SPS30;67954;47.618;17.606;2023-07-31T01:21:48;0.00;0.00;0.00;0.00;;;;119.00;1.00;
78642;SPS30;67954;47.618;17.606;2023-07-31T01:22:53;0.00;0.00;0.00;0.00;;;;118.00;1.00;
78642;SPS30;67954;47.618;17.606;2023-07-31T01:23:47;0.00;0.00;0.00;0.00;;;;117.67;1.00;
78642;SPS30;67954;47.618;17.606;2023-07-31T01:24:33;0.00;0.00;0.00;0.00;;;;117.00;1.00;
78642;SPS30;67954;47.618;17.606;2023-07-31T01:25:15;0.00;0.00;0.00;0.00;;;;117.00;1.00;
78642;SPS30;67954;47.618;17.606;2023-07-31T01:26:02;0.00;0.00;0.00;0.00;;;;116.00;1.00;
78642;SPS30;67954;47.618;17.606;2023-07-31T01:26:39;0.00;0.00;0.00;0.00;;;;116.00;1.00;
78642;SPS30;67954;47.618;17.606;2023-07-31T01:27:17;0.00;0.00;0.00;0.00;;;;112.33;1.00;
78642;SPS30;67954;47.618;17.606;2023-07-31T01:27:56;0.00;0.00;0.00;0.00;;;;95.00;1.00;
78642;SPS30;67954;47.618;17.606;2023-07-31T01:28:34;0.00;0.00;0.00;0.00;;;;84.00;1.00;
78642;SPS30;67954;47.618;17.606;2023-07-31T01:29:12;0.00;0.00;0.00;0.00;;;;79.67;1.00;
78642;SPS30;67954;47.618;17.606;2023-07-31T01:29:56;0.00;0.00;0.00;0.00;;;;80.33;1.00;
78642;SPS30;67954;47.618;17.606;2023-07-31T01:30:32;0.00;0.00;0.00;0.00;;;;79.00;1.00;
78642;SPS30;67954;47.618;17.606;2023-07-31T01:31:06;0.00;0.00;0.00;0.00;;;;72.67;1.00;
78642;SPS30;67954;47.618;17.606;2023-07-31T01:31:41;0.00;0.00;0.00;0.00;;;;62.33;1.00;
78642;SPS30;67954;47.618;17.606;2023-07-31T01:32:18;0.00;0.00;0.00;0.00;;;;59.00;1.00;
78642;SPS30;67954;47.618;17.606;2023-07-31T01:32:50;0.00;0.00;0.00;0.00;;;;60.33;1.00;
78642;SPS30;67954;47.618;17.606;2023-07-31T01:33:25;0.00;0.00;0.00;0.00;;;;56.00;1.00;
78642;SPS30;67954;47.618;17.606;2023-07-31T01:33:57;0.00;0.00;0.00;0.00;;;;54.67;1.00;
78642;SPS30;67954;47.618;17.606;2023-07-31T01:34:31;0.00;0.00;0.00;0.00;;;;56.00;1.00;
78642;SPS30;67954;47.618;17.606;2023-07-31T01:35:03;0.00;0.00;0.00;0.00;;;;61.33;1.00;
78642;SPS30;67954;47.618;17.606;2023-07-31T01:35:36;0.00;0.00;0.00;0.00;;;;63.00;1.00;
78642;SPS30;67954;47.618;17.606;2023-07-31T01:36:08;0.00;0.00;0.00;0.00;;;;64.67;1.00;
78642;SPS30;67954;47.618;17.606;2023-07-31T01:36:40;0.00;0.00;0.00;0.00;;;;65.67;1.00;
78642;SPS30;67954;47.618;17.606;2023-07-31T01:37:10;0.00;0.00;0.00;0.00;;;;67.67;1.00;
78642;SPS30;67954;47.618;17.606;2023-07-31T01:37:42;0.00;0.00;0.00;0.00;;;;69.33;1.00;
78642;SPS30;67954;47.618;17.606;2023-07-31T01:38:13;0.00;0.00;0.00;0.00;;;;70.33;1.00;
78642;SPS30;67954;47.618;17.606;2023-07-31T01:38:44;0.00;0.00;0.00;0.00;;;;72.00;1.00;
78642;SPS30;67954;47.618;17.606;2023-07-31T01:39:14;0.00;0.00;0.00;0.00;;;;75.00;1.00;
78642;SPS30;67954;47.618;17.606;2023-07-31T01:39:46;0.00;0.00;0.00;0.00;;;;78.33;1.00;
78642;SPS30;67954;47.618;17.606;2023-07-31T01:40:17;0.00;0.00;0.00;0.00;;;;84.00;1.00;
78642;SPS30;67954;47.618;17.606;2023-07-31T01:40:50;0.00;0.00;0.00;0.00;;;;92.00;1.00;
78642;SPS30;67954;47.618;17.606;2023-07-31T01:41:23;0.00;0.00;0.00;0.00;;;;96.00;1.00;
78642;SPS30;67954;47.618;17.606;2023-07-31T01:41:55;0.00;0.00;0.00;0.00;;;;93.67;1.00;
78642;SPS30;67954;47.618;17.606;2023-07-31T01:42:26;0.00;0.00;0.00;0.00;;;;92.67;1.00;
78642;SPS30;67954;47.618;17.606;2023-07-31T01:42:57;0.00;0.00;0.00;0.00;;;;89.67;2.00;
78642;SPS30;67954;47.618;17.606;2023-07-31T01:43:28;0.00;0.00;0.00;0.00;;;;80.67;2.00;
78642;SPS30;67954;47.618;17.606;2023-07-31T01:43:59;0.00;0.00;0.00;0.00;;;;75.00;2.00;
78642;SPS30;67954;47.618;17.606;2023-07-31T01:44:30;0.00;0.00;0.00;0.00;;;;62.33;2.00;
78642;SPS30;67954;47.618;17.606;2023-07-31T01:45:03;0.00;0.00;0.00;0.00;;;;51.00;2.00;
78642;SPS30;67954;47.618;17.606;2023-07-31T01:45:34;0.00;0.00;0.00;0.00;;;;49.67;2.00;
78642;SPS30;67954;47.618;17.606;2023-07-31T01:46:06;0.00;0.00;0.00;0.00;;;;53.67;2.00;
78642;SPS30;67954;47.618;17.606;2023-07-31T01:46:36;0.00;0.00;0.00;0.00;;;;58.00;2.00;
78642;SPS30;67954;47.618;17.606;2023-07-31T01:47:07;0.00;0.00;0.00;0.00;;;;61.00;2.00;
78642;SPS30;67954;47.618;17.606;2023-07-31T01:47:38;0.00;0.00;0.00;0.00;;;;62.67;2.00;
78642;SPS30;67954;47.618;17.606;2023-07-31T01:48:10;0.00;0.00;0.00;0.00;;;;67.00;2.00;
78642;SPS30;67954;47.618;17.606;2023-07-31T01:48:41;0.00;0.00;0.00;0.00;;;;81.67;2.00;
78642;SPS30;67954;47.618;17.606;2023-07-31T01:49:12;0.00;0.00;0.00;0.00;;;;97.33;2.00;
78642;SPS30;67954;47.618;17.606;2023-07-31T01:49:42;0.00;0.00;0.00;0.00;;;;109.00;2.00;
78642;SPS30;67954;47.618;17.606;2023-07-31T01:50:14;0.00;0.00;0.00;0.00;;;;106.67;2.00;
78642;SPS30;67954;47.618;17.606;2023-07-31T01:50:45;0.00;0.00;0.00;0.00;;;;97.33;2.00;
78642;SPS30;67954;47.618;17.606;2023-07-31T01:51:16;0.00;0.00;0.00;0.00;;;;94.33;2.00;
78642;SPS30;67954;47.618;17.606;2023-07-31T01:51:47;0.00;0.00;0.00;0.00;;;;91.67;2.00;
78642;SPS30;67954;47.618;17.606;2023-07-31T01:52:18;0.00;0.00;0.00;0.00;;;;89.00;2.00;
78642;SPS30;67954;47.618;17.606;2023-07-31T01:52:49;0.00;0.00;0.00;0.00;;;;89.00;2.00;
78642;SPS30;67954;47.618;17.606;2023-07-31T01:53:20;0.00;0.00;0.00;0.00;;;;90.00;2.00;
78642;SPS30;67954;47.618;17.606;2023-07-31T01:53:51;0.00;0.00;0.00;0.00;;;;90.00;2.00;
78642;SPS30;67954;47.618;17.606;2023-07-31T01:54:21;0.00;0.00;0.00;0.00;;;;91.33;2.00;
78642;SPS30;67954;47.618;17.606;2023-07-31T01:54:53;0.00;0.00;0.00;0.00;;;;97.00;2.00;
78642;SPS30;67954;47.618;17.606;2023-07-31T01:55:24;0.00;0.00;0.00;0.00;;;;99.00;2.00;
78642;SPS30;67954;47.618;17.606;2023-07-31T01:55:55;0.00;0.00;0.00;0.00;;;;99.33;2.00;
78642;SPS30;67954;47.618;17.606;2023-07-31T01:56:27;0.00;0.00;0.00;0.00;;;;98.00;2.00;
78642;SPS30;67954;47.618;17.606;2023-07-31T01:56:59;0.00;0.00;0.00;0.00;;;;96.33;2.00;
78642;SPS30;67954;47.618;17.606;2023-07-31T01:57:30;0.00;0.00;0.00;0.00;;;;95.00;2.00;
78642;SPS30;67954;47.618;17.606;2023-07-31T01:58:01;0.00;0.00;0.00;0.00;;;;95.00;2.00;
78642;SPS30;67954;47.618;17.606;2023-07-31T01:58:32;0.00;0.00;0.00;0.00;;;;94.67;2.00;
78642;SPS30;67954;47.618;17.606;2023-07-31T01:59:03;0.00;0.00;0.00;0.00;;;;95.67;2.00;
78642;SPS30;67954;47.618;17.606;2023-07-31T01:59:34;0.00;0.00;0.00;0.00;;;;97.67;2.00;
78642;SPS30;67954;47.618;17.606;2023-07-31T02:00:05;0.00;0.00;0.00;0.00;;;;95.67;2.00;
78642;SPS30;67954;47.618;17.606;2023-07-31T02:00:38;0.00;0.00;0.00;0.00;;;;93.00;2.00;
78642;SPS30;67954;47.618;17.606;2023-07-31T02:01:08;0.00;0.00;0.00;0.00;;;;91.00;2.00;
78642;SPS30;67954;47.618;17.606;2023-07-31T02:01:39;0.00;0.00;0.00;0.00;;;;91.00;2.00;
78642;SPS30;67954;47.618;17.606;2023-07-31T02:02:10;0.00;0.00;0.00;0.00;;;;91.67;2.00;
78642;SPS30;67954;47.618;17.606;2023-07-31T02:02:42;0.00;0.00;0.00;0.00;;;;93.67;2.00;
78642;SPS30;67954;47.618;17.606;2023-07-31T02:03:13;0.00;0.00;0.00;0.00;;;;99.67;2.00;
78642;SPS30;67954;47.618;17.606;2023-07-31T02:03:43;0.00;0.00;0.00;0.00;;;;101.00;2.00;
78642;SPS30;67954;47.618;17.606;2023-07-31T02:04:15;0.00;0.00;0.00;0.00;;;;101.67;2.00;
78642;SPS30;67954;47.618;17.606;2023-07-31T02:04:46;0.00;0.00;0.00;0.00;;;;104.33;2.00;
78642;SPS30;67954;47.618;17.606;2023-07-31T02:05:17;0.00;0.00;0.00;0.00;;;;105.67;2.00;
78642;SPS30;67954;47.618;17.606;2023-07-31T02:05:48;0.00;0.00;0.00;0.00;;;;108.00;2.00;
78642;SPS30;67954;47.618;17.606;2023-07-31T02:06:20;0.00;0.00;0.00;0.00;;;;110.00;2.00;
78642;SPS30;67954;47.618;17.606;2023-07-31T02:06:52;0.00;0.00;0.00;0.00;;;;114.33;2.00;
78642;SPS30;67954;47.618;17.606;2023-07-31T02:07:23;0.00;0.00;0.00;0.00;;;;119.00;2.00;
78642;SPS30;67954;47.618;17.606;2023-07-31T02:07:55;0.00;0.00;0.00;0.00;;;;119.33;2.00;
78642;SPS30;67954;47.618;17.606;2023-07-31T02:08:26;0.00;0.00;0.00;0.00;;;;122.67;2.00;
78642;SPS30;67954;47.618;17.606;2023-07-31T02:08:57;0.00;0.00;0.00;0.00;;;;117.00;2.00;
78642;SPS30;67954;47.618;17.606;2023-07-31T02:09:27;0.00;0.00;0.00;0.00;;;;120.00;2.00;
78642;SPS30;67954;47.618;17.606;2023-07-31T02:09:58;0.00;0.00;0.00;0.00;;;;129.00;2.00;
78642;SPS30;67954;47.618;17.606;2023-07-31T02:10:30;0.00;0.00;0.00;0.00;;;;131.33;2.00;
78642;SPS30;67954;47.618;17.606;2023-07-31T02:11:01;0.00;0.00;0.00;0.00;;;;130.00;2.00;
78642;SPS30;67954;47.618;17.606;2023-07-31T02:11:33;0.00;0.00;0.00;0.00;;;;129.00;1.67;
78642;SPS30;67954;47.618;17.606;2023-07-31T02:12:04;0.00;0.00;0.00;0.00;;;;126.67;1.00;
78642;SPS30;67954;47.618;17.606;2023-07-31T02:12:38;0.00;0.00;0.00;0.00;;;;128.00;1.00;
78642;SPS30;67954;47.618;17.606;2023-07-31T02:13:09;0.00;0.00;0.00;0.00;;;;130.00;1.00;
78642;SPS30;67954;47.618;17.606;2023-07-31T02:13:40;0.00;0.00;0.00;0.00;;;;129.67;1.00;
78642;SPS30;67954;47.618;17.606;2023-07-31T02:14:12;0.00;0.00;0.00;0.00;;;;128.00;1.00;
78642;SPS30;67954;47.618;17.606;2023-07-31T02:14:42;0.00;0.00;0.00;0.00;;;;126.33;1.00;
78642;SPS30;67954;47.618;17.606;2023-07-31T02:15:13;0.00;0.00;0.00;0.00;;;;126.00;1.00;
78642;SPS30;67954;47.618;17.606;2023-07-31T02:15:45;0.00;0.00;0.00;0.00;;;;126.33;1.00;
78642;SPS30;67954;47.618;17.606;2023-07-31T02:16:16;0.00;0.00;0.00;0.00;;;;126.33;1.00;
78642;SPS30;67954;47.618;17.606;2023-07-31T02:16:47;0.00;0.00;0.00;0.00;;;;126.67;1.00;
78642;SPS30;67954;47.618;17.606;2023-07-31T02:17:18;0.00;0.00;0.00;0.00;;;;129.33;1.00;
78642;SPS30;67954;47.618;17.606;2023-07-31T02:17:49;0.00;0.00;0.00;0.00;;;;130.00;1.00;
78642;SPS30;67954;47.618;17.606;2023-07-31T02:18:20;0.00;0.00;0.00;0.00;;;;131.67;1.00;
78642;SPS30;67954;47.618;17.606;2023-07-31T02:18:52;0.00;0.00;0.00;0.00;;;;132.00;1.00;
78642;SPS30;67954;47.618;17.606;2023-07-31T02:19:23;0.00;0.00;0.00;0.00;;;;131.33;1.00;
78642;SPS30;67954;47.618;17.606;2023-07-31T02:19:54;0.00;0.00;0.00;0.00;;;;131.00;1.00;
78642;SPS30;67954;47.618;17.606;2023-07-31T02:20:25;0.00;0.00;0.00;0.00;;;;132.00;1.00;
78642;SPS30;67954;47.618;17.606;2023-07-31T02:20:56;0.00;0.00;0.00;0.00;;;;131.67;1.00;
78642;SPS30;67954;47.618;17.606;2023-07-31T02:21:27;0.00;0.00;0.00;0.00;;;;131.00;1.00;
78642;SPS30;67954;47.618;17.606;2023-07-31T02:21:59;0.00;0.00;0.00;0.00;;;;131.00;1.00;
78642;SPS30;67954;47.618;17.606;2023-07-31T02:22:29;0.00;0.00;0.00;0.00;;;;131.67;1.00;
78642;SPS30;67954;47.618;17.606;2023-07-31T02:23:00;0.00;0.00;0.00;0.00;;;;132.67;1.00;
78642;SPS30;67954;47.618;17.606;2023-07-31T02:23:31;0.00;0.00;0.00;0.00;;;;132.00;1.00;
78642;SPS30;67954;47.618;17.606;2023-07-31T02:24:03;0.00;0.00;0.00;0.00;;;;131.00;1.00;
78642;SPS30;67954;47.618;17.606;2023-07-31T02:24:34;0.00;0.00;0.00;0.00;;;;128.67;1.00;
78642;SPS30;67954;47.618;17.606;2023-07-31T02:25:05;0.00;0.00;0.00;0.00;;;;122.33;1.00;
78642;SPS30;67954;47.618;17.606;2023-07-31T02:25:36;0.00;0.00;0.00;0.00;;;;122.00;1.00;
78642;SPS30;67954;47.618;17.606;2023-07-31T02:26:08;0.00;0.00;0.00;0.00;;;;124.00;1.00;
78642;SPS30;67954;47.618;17.606;2023-07-31T02:26:40;0.00;0.00;0.00;0.00;;;;125.67;1.00;